Terminal Aerodrome Forecast
Issued by NWS

Home | Current Version | Previous Version | Text Only | Print | Product List | Glossary On
Versions: 1 2 3 4 5 6 7 8 9 10 11 12 13 14
000
FTUS44 KLIX 130500
TAFMSY
TAF
KMSY 130520Z 1306/1406 VRB03KT P6SM FEW030 SCT250
     FM131500 VRB05KT P6SM SCT030
     FM131900 17006KT P6SM VCTS SCT035CB
     FM140100 18004KT P6SM FEW100 SCT250=

USA.gov is the U.S. government's official web portal to all federal, state and local government web resources and services.